Mazarn, Arkansas
Current Conditions -  °F | °C
As of 5:53 PM on Friday 31 Oct 2014 (Local Time) from KHOT Reporting Station
Clear Clear  
Wind Chill: 59°   Ceiling: Unl
Heat Index: 59°   Visibility: 10mi
Dew Point: 33°   Wind: 7mph
Humidity: 38%   Direction: 350°N
Pressure: 30.25"   Gusts: NA
Location:  34.3467°N, 93.3187°W
Report Text: KHOT 312253Z AUTO 35006KT 10SM CLR 15/01 A3025 RMK AO2 SLP243 T01500006
Loading
Personal Weather Stations






























Interactive Weather Map New forecast layout! Learn more

10-Day Weather Forecast

Advertisements
Track Severe Weather on mobile